createdAt,value
2023-04-03T00:01:07.355Z,100906.81
2023-04-03T00:03:34.671Z,100897.50
2023-04-03T00:06:03.816Z,100893.28
2023-04-03T00:08:33.658Z,100897.28
2023-04-03T00:11:00.405Z,100893.81
2023-04-03T00:13:27.207Z,100897.81
2023-04-03T00:15:54.139Z,100896.84
2023-04-03T00:18:21.147Z,100899.16
2023-04-03T00:20:48.611Z,100901.56
2023-04-03T00:23:15.869Z,100898.06
2023-04-03T00:25:43.214Z,100912.25
2023-04-03T00:28:09.986Z,100908.81
2023-04-03T00:30:37.089Z,100908.81
2023-04-03T00:33:04.180Z,100910.53
2023-04-03T00:35:31.380Z,100919.78
2023-04-03T00:37:58.854Z,100908.19
2023-04-03T00:40:27.650Z,100906.66
2023-04-03T00:43:00.164Z,100911.06
2023-04-03T00:45:38.524Z,100906.97
2023-04-03T00:48:08.904Z,100913.03
2023-04-03T00:50:40.469Z,100913.22
2023-04-03T00:53:19.861Z,100908.31
2023-04-03T00:55:49.359Z,100907.47
2023-04-03T00:58:20.787Z,100910.88
2023-04-03T01:00:57.106Z,100910.75
2023-04-03T01:03:24.687Z,100908.19
2023-04-03T01:05:52.214Z,100907.31
2023-04-03T01:08:19.028Z,100907.31
2023-04-03T01:10:45.942Z,100911.50
2023-04-03T01:13:30.891Z,100913.28
2023-04-03T01:16:01.169Z,100906.47
2023-04-03T01:18:28.093Z,100905.69
2023-04-03T01:21:25.454Z,100912.44
2023-04-03T01:24:11.516Z,100909.94
2023-04-03T01:26:38.270Z,100908.25
2023-04-03T01:29:05.369Z,100906.59
2023-04-03T01:31:56.849Z,100916.69
2023-04-03T01:34:25.014Z,100912.50
2023-04-03T01:36:53.017Z,100910.88
2023-04-03T01:39:20.988Z,100915.09
2023-04-03T01:41:48.619Z,100915.94
2023-04-03T01:44:15.652Z,100914.31
2023-04-03T01:46:43.332Z,100906.78
2023-04-03T01:49:10.672Z,100908.50
2023-04-03T01:51:37.460Z,100916.81
2023-04-03T01:54:04.910Z,100918.53
2023-04-03T01:56:31.938Z,100919.28
2023-04-03T01:58:58.739Z,100914.13
2023-04-03T02:01:26.997Z,100920.81
2023-04-03T02:03:53.959Z,100918.31
2023-04-03T02:06:20.762Z,100922.53
2023-04-03T02:08:47.508Z,100923.34
2023-04-03T02:11:14.249Z,100919.16
2023-04-03T02:13:41.180Z,100922.50
2023-04-03T02:16:10.888Z,100927.56
2023-04-03T02:18:39.015Z,100920.81
2023-04-03T02:21:05.811Z,100933.38
2023-04-03T02:23:32.777Z,100933.38
2023-04-03T02:26:12.600Z,100933.34
2023-04-03T02:28:40.679Z,100924.81
2023-04-03T02:31:08.446Z,100931.44
2023-04-03T02:33:37.556Z,100931.44
2023-04-03T02:36:06.823Z,100927.09
2023-04-03T02:38:34.258Z,100930.41
2023-04-03T02:41:04.353Z,100937.03
2023-04-03T02:43:31.152Z,100936.94
2023-04-03T02:45:57.940Z,100934.34
2023-04-03T02:48:25.559Z,100935.06
2023-04-03T02:50:52.579Z,100932.50
2023-04-03T02:53:20.326Z,100941.66
2023-04-03T02:55:47.425Z,100944.19
2023-04-03T02:58:14.224Z,100936.56
2023-04-03T03:00:41.439Z,100945.75
2023-04-03T03:03:08.336Z,100931.41
2023-04-03T03:05:35.558Z,100943.13
2023-04-03T03:08:02.313Z,100934.56
2023-04-03T03:10:29.036Z,100943.69
2023-04-03T03:12:55.816Z,100938.59
2023-04-03T03:15:22.666Z,100927.63
2023-04-03T03:17:49.409Z,100939.28
2023-04-03T03:20:16.380Z,100934.25
2023-04-03T03:22:43.236Z,100935.84
2023-04-03T03:25:10.382Z,100933.28
2023-04-03T03:27:37.202Z,100923.97
2023-04-03T03:30:05.515Z,100932.28
2023-04-03T03:32:32.403Z,100928.88
2023-04-03T03:34:59.166Z,100934.63
2023-04-03T03:37:25.864Z,100939.66
2023-04-03T03:39:52.590Z,100933.66
2023-04-03T03:42:19.334Z,100936.09
2023-04-03T03:44:46.301Z,100940.19
2023-04-03T03:47:13.021Z,100942.72
2023-04-03T03:49:39.768Z,100940.94
2023-04-03T03:52:06.636Z,100942.59
2023-04-03T03:54:33.326Z,100940.03
2023-04-03T03:57:00.504Z,100941.75
2023-04-03T03:59:27.273Z,100941.59
2023-04-03T04:01:54.010Z,100948.28
2023-04-03T04:04:21.061Z,100937.41
2023-04-03T04:06:47.894Z,100936.03
2023-04-03T04:09:14.607Z,100937.91
2023-04-03T04:11:41.481Z,100934.16
2023-04-03T04:14:08.692Z,100955.56
2023-04-03T04:16:35.522Z,100953.63
2023-04-03T04:19:02.290Z,100952.59
2023-04-03T04:21:29.063Z,100953.31
2023-04-03T04:23:55.868Z,100957.34
2023-04-03T04:26:22.667Z,100961.47
2023-04-03T04:28:49.421Z,100963.84
2023-04-03T04:31:16.189Z,100961.22
2023-04-03T04:33:42.911Z,100961.09
2023-04-03T04:36:09.776Z,100965.19
2023-04-03T04:38:36.946Z,100958.38
2023-04-03T04:41:03.635Z,100961.63
2023-04-03T04:43:30.609Z,100967.31
2023-04-03T04:46:13.041Z,100976.47
2023-04-03T04:48:39.855Z,100978.03
2023-04-03T04:51:06.960Z,100972.00
2023-04-03T04:53:33.950Z,100971.16
2023-04-03T04:56:00.735Z,100983.63
2023-04-03T04:58:27.630Z,100985.28
2023-04-03T05:01:07.525Z,100978.47
2023-04-03T05:03:34.323Z,100975.03
2023-04-03T05:06:01.502Z,100971.63
2023-04-03T05:08:28.307Z,100976.66
2023-04-03T05:10:56.300Z,100980.81
2023-04-03T05:13:23.448Z,100981.72
2023-04-03T05:15:50.317Z,100990.91
2023-04-03T05:18:17.147Z,100987.59
2023-04-03T05:20:44.366Z,100982.56
2023-04-03T05:23:13.286Z,100997.72
2023-04-03T05:25:52.644Z,100997.72
2023-04-03T05:28:23.798Z,101001.06
2023-04-03T05:31:01.316Z,100997.84
2023-04-03T05:36:34.237Z,101004.97
2023-04-03T05:39:26.692Z,101009.53
2023-04-03T05:41:56.854Z,101007.44
2023-04-03T05:44:23.680Z,101007.88
2023-04-03T05:46:50.387Z,101011.81
2023-04-03T05:49:17.111Z,101011.56
2023-04-03T05:51:45.778Z,101029.03
2023-04-03T05:54:20.812Z,101019.66
2023-04-03T05:56:47.656Z,101018.56
2023-04-03T05:59:14.444Z,101020.94
2023-04-03T06:01:41.547Z,101017.56
2023-04-03T06:04:10.001Z,101028.34
2023-04-03T06:06:55.609Z,101023.38
2023-04-03T06:09:25.897Z,101026.66
2023-04-03T06:11:53.493Z,101029.13
2023-04-03T06:14:21.038Z,101032.44
2023-04-03T06:16:48.235Z,101025.69
2023-04-03T06:19:15.019Z,101028.22
2023-04-03T06:21:41.894Z,101035.81
2023-04-03T06:24:08.957Z,101033.28
2023-04-03T06:26:36.045Z,101039.97
2023-04-03T06:29:03.425Z,101034.84
2023-04-03T06:31:30.851Z,101027.00
2023-04-03T06:33:57.871Z,101027.59
2023-04-03T06:36:25.169Z,101038.25
2023-04-03T06:38:52.004Z,101035.38
2023-04-03T06:41:18.725Z,101024.03
2023-04-03T06:43:45.832Z,101023.81
2023-04-03T06:46:21.543Z,101027.88
2023-04-03T06:48:49.636Z,101026.03
2023-04-03T06:51:29.102Z,101026.00
2023-04-03T06:53:59.651Z,101023.41
2023-04-03T06:56:27.794Z,101020.69
2023-04-03T06:58:58.338Z,101018.81
2023-04-03T07:01:28.842Z,101018.47
2023-04-03T07:03:56.769Z,101015.47
2023-04-03T07:06:23.611Z,101019.94
2023-04-03T07:08:50.396Z,101020.91
2023-04-03T07:11:17.860Z,101015.03
2023-04-03T07:13:44.814Z,101015.88
2023-04-03T07:16:11.984Z,101026.03
2023-04-03T07:18:38.872Z,101025.84
2023-04-03T07:21:05.753Z,101025.56
2023-04-03T07:23:32.960Z,101014.88
2023-04-03T07:26:00.214Z,101025.50
2023-04-03T07:28:27.102Z,101017.25
2023-04-03T07:31:13.033Z,101028.63
2023-04-03T07:33:40.289Z,101018.81
2023-04-03T07:36:08.776Z,101014.03
2023-04-03T07:38:37.552Z,101024.50
2023-04-03T07:41:05.545Z,101018.81
2023-04-03T07:43:32.382Z,101022.34
2023-04-03T07:46:00.262Z,101015.09
2023-04-03T07:48:27.727Z,101021.00
2023-04-03T07:50:54.641Z,101026.78
2023-04-03T07:53:21.687Z,101023.91
2023-04-03T07:55:52.431Z,101026.69
2023-04-03T07:58:20.359Z,101028.56
2023-04-03T08:00:48.518Z,101035.13
2023-04-03T08:03:19.840Z,101033.25
2023-04-03T08:05:49.806Z,101025.47
2023-04-03T08:08:23.374Z,101022.72
2023-04-03T08:10:55.071Z,101031.91
2023-04-03T08:13:23.360Z,101033.34
2023-04-03T08:15:50.247Z,101034.38
2023-04-03T08:18:17.568Z,101030.13
2023-04-03T08:20:44.482Z,101030.13
2023-04-03T08:23:12.172Z,101034.44
2023-04-03T08:25:41.816Z,101031.97
2023-04-03T08:28:10.255Z,101027.88
2023-04-03T08:30:37.285Z,101030.00
2023-04-03T08:33:05.120Z,101025.13
2023-04-03T08:35:31.920Z,101026.19
2023-04-03T08:37:59.085Z,101040.88
2023-04-03T08:40:26.049Z,101047.91
2023-04-03T08:42:57.144Z,101045.50
2023-04-03T08:45:43.197Z,101041.38
2023-04-03T08:48:37.263Z,101049.09
2023-04-03T08:51:16.052Z,101058.47
2023-04-03T08:54:05.624Z,101055.91
2023-04-03T08:56:37.883Z,101061.75
2023-04-03T08:59:20.664Z,101061.66
2023-04-03T09:01:48.209Z,101053.75
2023-04-03T09:04:20.815Z,101045.22
2023-04-03T09:06:56.580Z,101064.72
2023-04-03T09:09:36.853Z,101063.06
2023-04-03T09:12:27.749Z,101059.72
2023-04-03T09:15:31.294Z,101065.78
2023-04-03T09:18:31.062Z,101056.59
2023-04-03T09:21:26.198Z,101068.59
2023-04-03T09:23:58.943Z,101062.72
2023-04-03T09:26:36.920Z,101053.34
2023-04-03T09:29:09.298Z,101060.94
2023-04-03T09:31:43.770Z,101052.97
2023-04-03T09:34:27.236Z,101052.66
2023-04-03T09:36:58.645Z,101044.00
2023-04-03T09:39:30.826Z,101043.00
2023-04-03T09:42:05.386Z,101042.09
2023-04-03T09:44:39.140Z,101037.84
2023-04-03T09:47:34.112Z,101036.94
2023-04-03T09:50:15.880Z,101038.50
2023-04-03T09:52:45.438Z,101038.28
2023-04-03T09:55:18.439Z,101028.56
2023-04-03T09:57:46.902Z,101040.28
2023-04-03T10:00:32.587Z,101027.19
2023-04-03T10:03:00.295Z,101033.09
2023-04-03T10:05:41.497Z,101021.03
2023-04-03T10:08:33.194Z,101025.97
2023-04-03T10:11:19.779Z,101020.69
2023-04-03T10:14:03.888Z,101021.63
2023-04-03T10:16:51.051Z,101010.50
2023-04-03T10:19:31.242Z,101008.63
2023-04-03T10:22:15.622Z,101008.63
2023-04-03T10:25:02.804Z,101012.06
2023-04-03T10:27:48.053Z,101012.81
2023-04-03T10:30:25.934Z,101004.88
2023-04-03T10:33:37.729Z,101007.09
2023-04-03T10:36:14.152Z,101009.69
2023-04-03T10:39:18.127Z,101003.94
2023-04-03T10:42:23.716Z,100998.81
2023-04-03T10:45:18.981Z,100994.44
2023-04-03T10:48:12.797Z,100998.78
2023-04-03T10:51:10.523Z,100996.25
2023-04-03T10:53:55.721Z,101007.41
2023-04-03T10:56:42.404Z,101009.34
2023-04-03T10:59:33.929Z,101003.88
2023-04-03T11:02:23.628Z,101001.78
2023-04-03T11:04:58.250Z,100991.91
2023-04-03T11:07:33.964Z,100993.97
2023-04-03T11:10:20.281Z,100990.84
2023-04-03T11:13:02.536Z,100991.00
2023-04-03T11:15:34.114Z,100988.59
2023-04-03T11:18:29.805Z,100975.09
2023-04-03T11:21:13.732Z,100981.16
2023-04-03T11:23:49.684Z,100983.78
2023-04-03T11:26:26.377Z,100972.72
2023-04-03T11:29:11.249Z,100971.06
2023-04-03T11:32:17.495Z,100966.88
2023-04-03T11:34:51.049Z,100967.06
2023-04-03T11:37:40.980Z,100977.44
2023-04-03T11:40:27.480Z,100983.47
2023-04-03T11:43:07.567Z,100974.13
2023-04-03T11:46:07.409Z,100971.63
2023-04-03T11:48:36.819Z,100954.63
2023-04-03T11:51:29.060Z,100956.34
2023-04-03T11:54:38.569Z,100958.03
2023-04-03T11:58:01.990Z,100963.03
2023-04-03T12:00:50.884Z,100943.41
2023-04-03T12:03:26.536Z,100945.94
2023-04-03T12:06:07.021Z,100943.31
2023-04-03T12:08:33.778Z,100942.44
2023-04-03T12:11:09.875Z,100944.03
2023-04-03T12:13:56.840Z,100933.75
2023-04-03T12:16:38.723Z,100931.09
2023-04-03T12:19:41.213Z,100927.66
2023-04-03T12:22:13.694Z,100931.81
2023-04-03T12:24:45.151Z,100923.25
2023-04-03T12:27:35.658Z,100910.44
2023-04-03T12:30:05.810Z,100912.91
2023-04-03T12:33:02.038Z,100915.34
2023-04-03T12:35:55.073Z,100924.59
2023-04-03T12:38:49.927Z,100925.34
2023-04-03T12:41:39.405Z,100912.53
2023-04-03T12:44:43.065Z,100921.84
2023-04-03T12:47:25.498Z,100923.47
2023-04-03T12:49:54.178Z,100912.44
2023-04-03T12:52:51.384Z,100916.69
2023-04-03T12:55:21.764Z,100909.00
2023-04-03T12:57:49.051Z,100910.72
2023-04-03T13:00:34.189Z,100909.88
2023-04-03T13:03:04.399Z,100901.44
2023-04-03T13:05:36.501Z,100909.88
2023-04-03T13:08:16.835Z,100904.78
2023-04-03T13:11:11.761Z,100902.19
2023-04-03T13:13:39.827Z,100886.91
2023-04-03T13:16:18.487Z,100883.56
2023-04-03T13:18:55.226Z,100889.50
2023-04-03T13:21:28.812Z,100881.06
2023-04-03T13:24:14.761Z,100880.22
2023-04-03T13:26:43.593Z,100876.03
2023-04-03T13:29:31.724Z,100885.38
2023-04-03T13:32:02.332Z,100874.38
2023-04-03T13:34:39.386Z,100872.66
2023-04-03T13:37:06.366Z,100876.84
2023-04-03T13:39:37.938Z,100860.75
2023-04-03T13:42:27.697Z,100859.03
2023-04-03T13:45:29.519Z,100853.09
2023-04-03T13:48:24.070Z,100864.97
2023-04-03T13:51:29.507Z,100865.78
2023-04-03T13:54:02.206Z,100850.53
2023-04-03T13:56:39.298Z,100846.28
2023-04-03T13:59:12.467Z,100848.00
2023-04-03T14:01:51.475Z,100842.16
2023-04-03T14:04:26.645Z,100859.13
2023-04-03T14:06:54.377Z,100856.63
2023-04-03T14:09:24.455Z,100841.34
2023-04-03T14:11:58.166Z,100842.16
2023-04-03T14:14:32.231Z,100852.31
2023-04-03T14:17:03.844Z,100843.75
2023-04-03T14:19:34.729Z,100835.28
2023-04-03T14:22:14.043Z,100836.09
2023-04-03T14:24:41.240Z,100837.78
2023-04-03T14:27:27.740Z,100830.19
2023-04-03T14:29:58.043Z,100828.47
2023-04-03T14:32:28.186Z,100830.97
2023-04-03T14:34:56.224Z,100821.59
2023-04-03T14:37:27.504Z,100828.34
2023-04-03T14:39:58.122Z,100824.94
2023-04-03T14:42:32.215Z,100807.13
2023-04-03T14:45:01.147Z,100824.88
2023-04-03T14:47:32.374Z,100824.81
2023-04-03T14:50:02.398Z,100805.31
2023-04-03T14:52:37.022Z,100818.84
2023-04-03T14:55:07.115Z,100818.00
2023-04-03T14:57:35.449Z,100808.66
2023-04-03T15:00:05.119Z,100809.47
2023-04-03T15:02:34.601Z,100800.94
2023-04-03T15:05:05.966Z,100799.22
2023-04-03T15:07:37.713Z,100798.34
2023-04-03T15:10:27.871Z,100799.16
2023-04-03T15:12:55.604Z,100793.16
2023-04-03T15:15:25.000Z,100791.44
2023-04-03T15:17:56.159Z,100789.69
2023-04-03T15:20:28.899Z,100803.19
2023-04-03T15:22:57.678Z,100794.69
2023-04-03T15:25:26.194Z,100798.94
2023-04-03T15:27:58.046Z,100803.13
2023-04-03T15:30:25.294Z,100802.25
2023-04-03T15:32:52.493Z,100783.63
2023-04-03T15:35:19.690Z,100794.56
2023-04-03T15:37:46.457Z,100800.38
2023-04-03T15:40:15.064Z,100793.59
2023-04-03T15:42:41.847Z,100787.66
2023-04-03T15:45:09.966Z,100791.06
2023-04-03T15:47:37.144Z,100794.44
2023-04-03T15:50:07.701Z,100787.69
2023-04-03T15:52:35.655Z,100792.69
2023-04-03T15:55:02.950Z,100785.06
2023-04-03T16:00:01.599Z,100793.41
2023-04-03T16:02:28.756Z,100795.88
2023-04-03T16:04:56.305Z,100795.84
2023-04-03T16:07:23.040Z,100792.41
2023-04-03T16:09:49.808Z,100790.66
2023-04-03T16:12:16.548Z,100798.28
2023-04-03T16:14:43.311Z,100795.75
2023-04-03T16:17:10.038Z,100796.66
2023-04-03T16:19:37.045Z,100795.81
2023-04-03T16:22:03.947Z,100792.41
2023-04-03T16:24:30.815Z,100790.69
2023-04-03T16:26:57.754Z,100795.75
2023-04-03T16:29:24.566Z,100803.31
2023-04-03T16:31:52.814Z,100803.25
2023-04-03T16:34:19.703Z,100798.13
2023-04-03T16:36:46.469Z,100816.69
2023-04-03T16:39:13.254Z,100802.28
2023-04-03T16:41:40.048Z,100817.50
2023-04-03T16:44:08.413Z,100806.47
2023-04-03T16:46:35.737Z,100814.88
2023-04-03T16:49:02.595Z,100809.75
2023-04-03T16:51:29.449Z,100815.53
2023-04-03T16:53:56.507Z,100817.19
2023-04-03T16:56:23.260Z,100807.00
2023-04-03T16:58:50.312Z,100817.09
2023-04-03T17:01:20.908Z,100815.34
2023-04-03T17:03:48.974Z,100817.81
2023-04-03T17:06:24.172Z,100815.22
2023-04-03T17:08:53.196Z,100821.91
2023-04-03T17:11:21.883Z,100815.91
2023-04-03T17:13:49.004Z,100817.56
2023-04-03T17:16:17.558Z,100815.81
2023-04-03T17:18:46.625Z,100819.22
2023-04-03T17:21:14.346Z,100822.50
2023-04-03T17:23:45.411Z,100838.50
2023-04-03T17:26:12.411Z,100834.19
2023-04-03T17:28:40.722Z,100826.53
2023-04-03T17:31:08.451Z,100834.00
2023-04-03T17:33:35.989Z,100820.38
2023-04-03T17:36:05.690Z,100825.34
2023-04-03T17:38:34.189Z,100822.72
2023-04-03T17:41:05.733Z,100823.50
2023-04-03T17:43:33.387Z,100823.38
2023-04-03T17:46:10.073Z,100830.84
2023-04-03T17:48:40.248Z,100839.16
2023-04-03T17:51:13.959Z,100842.31
2023-04-03T17:53:41.159Z,100827.75
2023-04-03T17:56:11.205Z,100838.56
2023-04-03T17:58:38.217Z,100833.31
2023-04-03T18:01:27.464Z,100834.81
2023-04-03T18:03:57.328Z,100836.28
2023-04-03T18:06:34.042Z,100825.97
2023-04-03T18:09:14.551Z,100832.56
2023-04-03T18:11:42.218Z,100833.22
2023-04-03T18:14:10.514Z,100837.34
2023-04-03T18:16:37.511Z,100838.03
2023-04-03T18:21:36.556Z,100836.84
2023-04-03T18:24:06.638Z,100844.22
2023-04-03T18:26:34.190Z,100846.53
2023-04-03T18:29:05.749Z,100843.81
2023-04-03T18:31:35.458Z,100850.34
2023-04-03T18:34:02.296Z,100851.91
2023-04-03T18:36:29.414Z,100850.91
2023-04-03T18:38:56.476Z,100860.88
2023-04-03T18:41:31.254Z,100858.13
2023-04-03T18:44:01.414Z,100863.13
2023-04-03T18:46:28.296Z,100865.53
2023-04-03T18:48:56.011Z,100855.31
2023-04-03T18:51:22.934Z,100858.53
2023-04-03T18:53:49.782Z,100863.47
2023-04-03T18:56:16.549Z,100864.19
2023-04-03T18:58:43.434Z,100872.44
2023-04-03T19:01:10.610Z,100873.22
2023-04-03T19:03:37.926Z,100873.03
2023-04-03T19:06:05.856Z,100881.34
2023-04-03T19:08:33.648Z,100881.19
2023-04-03T19:11:00.574Z,100889.50
2023-04-03T19:13:28.125Z,100881.81
2023-04-03T19:15:58.780Z,100890.97
2023-04-03T19:18:27.453Z,100883.25
2023-04-03T19:20:59.017Z,100895.75
2023-04-03T19:23:26.640Z,100893.84
2023-04-03T19:26:07.468Z,100899.56
2023-04-03T19:28:34.707Z,100901.09
2023-04-03T19:31:02.252Z,100896.75
2023-04-03T19:33:29.059Z,100889.88
2023-04-03T19:35:56.441Z,100890.69
2023-04-03T19:38:23.203Z,100893.81
2023-04-03T19:40:50.002Z,100891.22
2023-04-03T19:43:17.326Z,100887.72
2023-04-03T19:45:46.309Z,100892.69
2023-04-03T19:48:13.518Z,100889.25
2023-04-03T19:50:40.752Z,100893.41
2023-04-03T19:53:09.220Z,100892.50
2023-04-03T19:55:38.036Z,100894.94
2023-04-03T19:58:05.004Z,100890.66
2023-04-03T20:00:32.339Z,100895.53
2023-04-03T20:02:59.211Z,100903.03
2023-04-03T20:05:26.175Z,100905.47
2023-04-03T20:07:52.924Z,100897.88
2023-04-03T20:10:20.195Z,100899.47
2023-04-03T20:12:46.988Z,100896.84
2023-04-03T20:15:14.106Z,100898.44
2023-04-03T20:17:41.261Z,100903.38
2023-04-03T20:20:09.337Z,100902.38
2023-04-03T20:22:38.829Z,100907.38
2023-04-03T20:25:09.608Z,100898.88
2023-04-03T20:27:36.759Z,100908.09
2023-04-03T20:30:08.751Z,100913.94
2023-04-03T20:32:35.872Z,100913.81
2023-04-03T20:35:04.358Z,100912.97
2023-04-03T20:37:32.538Z,100917.03
2023-04-03T20:39:59.301Z,100915.34
2023-04-03T20:42:26.133Z,100921.97
2023-04-03T20:44:52.954Z,100912.66
2023-04-03T20:47:19.868Z,100923.47
2023-04-03T20:49:46.683Z,100920.00
2023-04-03T20:52:13.442Z,100920.75
2023-04-03T20:54:40.758Z,100922.38
2023-04-03T20:57:07.573Z,100918.09
2023-04-03T20:59:35.034Z,100911.28
2023-04-03T21:02:01.873Z,100917.13
2023-04-03T21:04:42.178Z,100914.50
2023-04-03T21:08:05.189Z,100918.53
2023-04-03T21:11:31.540Z,100916.59
2023-04-03T21:14:55.149Z,100907.94
2023-04-03T21:17:21.747Z,100913.56
2023-04-03T21:19:48.811Z,100915.16
2023-04-03T21:22:16.165Z,100910.97
2023-04-03T21:24:44.353Z,100914.47
2023-04-03T21:27:11.501Z,100908.69
2023-04-03T21:29:38.738Z,100907.88
2023-04-03T21:32:05.824Z,100912.13
2023-04-03T21:34:33.133Z,100923.81
2023-04-03T21:37:06.073Z,100924.75
2023-04-03T21:39:33.311Z,100926.38
2023-04-03T21:42:00.599Z,100923.88
2023-04-03T21:44:30.795Z,100933.94
2023-04-03T21:46:57.811Z,100934.69
2023-04-03T21:49:25.706Z,100932.13
2023-04-03T21:51:52.657Z,100924.44
2023-04-03T21:54:20.647Z,100929.34
2023-04-03T21:56:48.299Z,100931.75
2023-04-03T21:59:15.713Z,100931.56
2023-04-03T22:01:43.110Z,100939.06
2023-04-03T22:04:10.014Z,100930.63
2023-04-03T22:06:37.854Z,100938.97
2023-04-03T22:09:05.150Z,100941.44
2023-04-03T22:11:32.180Z,100938.88
2023-04-03T22:13:59.772Z,100932.13
2023-04-03T22:16:27.385Z,100931.13
2023-04-03T22:18:54.832Z,100931.88
2023-04-03T22:21:22.000Z,100931.78
2023-04-03T22:23:48.906Z,100935.84
2023-04-03T22:26:16.061Z,100931.56
2023-04-03T22:28:45.688Z,100923.91
2023-04-03T22:31:14.043Z,100929.69
2023-04-03T22:33:43.824Z,100935.44
2023-04-03T22:36:12.928Z,100938.75
2023-04-03T22:38:43.669Z,100936.25
2023-04-03T22:41:10.829Z,100932.75
2023-04-03T22:43:39.232Z,100928.50
2023-04-03T22:46:08.699Z,100934.38
2023-04-03T22:48:37.088Z,100927.66
2023-04-03T22:51:07.533Z,100927.66
2023-04-03T22:53:35.870Z,100917.38
2023-04-03T22:56:08.324Z,100911.41
2023-04-03T22:58:35.180Z,100910.44
2023-04-03T23:01:13.880Z,100907.78
2023-04-03T23:03:42.569Z,100909.34
2023-04-03T23:06:10.965Z,100905.06
2023-04-03T23:08:38.533Z,100899.91
2023-04-03T23:11:07.129Z,100896.50
2023-04-03T23:13:34.100Z,100893.03
2023-04-03T23:16:02.829Z,100892.19
2023-04-03T23:18:31.865Z,100894.66
2023-04-03T23:21:03.697Z,100896.19
2023-04-03T23:23:31.014Z,100894.31
2023-04-03T23:26:01.393Z,100890.13
2023-04-03T23:28:28.980Z,100889.16
2023-04-03T23:31:07.048Z,100891.59
2023-04-03T23:36:17.669Z,100896.38
2023-04-03T23:38:44.553Z,100903.75
2023-04-03T23:41:11.382Z,100898.59
2023-04-03T23:43:39.584Z,100910.25
2023-04-03T23:46:06.364Z,100903.41
2023-04-03T23:48:33.110Z,100908.44
2023-04-03T23:50:59.809Z,100907.44
2023-04-03T23:53:27.151Z,100913.19
2023-04-03T23:55:53.880Z,100906.34
2023-04-03T23:58:20.735Z,100904.50
